Time;durP1;ratioP1;P1;durP2;ratioP2;P2;SDS_P1;SDS_P2;PMS_P1;PMS_P2;Temp;Humidity;BMP_temperature;BMP_pressure;BME280_temperature;BME280_humidity;BME280_pressure;Samples;Min_cycle;Max_cycle;Signal;HPM_P1;HPM_P2
2023/06/18 00:01:07;;;;;;;5.47;4.85;;;20.70;1.00;;;;;;5050229;28;20246;-66
2023/06/18 00:03:34;;;;;;;5.70;4.82;;;20.60;1.00;;;;;;5050963;28;20234;-77
2023/06/18 00:06:01;;;;;;;5.03;4.53;;;20.50;1.00;;;;;;5050228;28;20265;-78
2023/06/18 00:08:28;;;;;;;6.07;4.68;;;20.40;13.60;;;;;;5050854;28;20211;-74
2023/06/18 00:10:56;;;;;;;8.52;5.07;;;20.40;23.90;;;;;;5050190;28;20268;-73
2023/06/18 00:13:23;;;;;;;4.57;4.18;;;20.40;31.90;;;;;;5046909;28;20280;-79
2023/06/18 00:15:50;;;;;;;4.82;4.38;;;20.50;8.90;;;;;;5049732;28;20699;-74
2023/06/18 00:18:17;;;;;;;4.55;3.88;;;20.60;1.00;;;;;;5049287;28;20215;-81
2023/06/18 00:20:44;;;;;;;4.88;4.38;;;20.70;1.00;;;;;;5050355;28;20647;-84
2023/06/18 00:23:10;;;;;;;4.25;3.85;;;20.80;1.00;;;;;;5049674;28;20203;-78
2023/06/18 00:25:38;;;;;;;5.20;4.47;;;20.80;1.00;;;;;;5044349;28;20702;-66
2023/06/18 00:28:07;;;;;;;7.30;5.00;;;20.90;1.00;;;;;;5046330;28;20245;-79
2023/06/18 00:30:33;;;;;;;10.73;4.97;;;21.00;1.00;;;;;;5044717;28;20591;-71
2023/06/18 00:33:01;;;;;;;4.93;4.43;;;21.00;1.00;;;;;;5044324;28;20239;-76
2023/06/18 00:35:28;;;;;;;5.18;4.60;;;20.90;1.00;;;;;;5042842;28;20214;-77
2023/06/18 00:37:56;;;;;;;6.13;4.50;;;21.00;1.00;;;;;;5048844;28;20789;-74
2023/06/18 00:40:22;;;;;;;5.07;4.57;;;21.00;1.00;;;;;;5049574;28;20218;-83
2023/06/18 00:42:52;;;;;;;4.18;3.78;;;21.20;99.90;;;;;;5035699;28;20302;-81
2023/06/18 00:45:22;;;;;;;4.45;4.05;;;21.20;99.90;;;;;;5050121;28;20325;-70
2023/06/18 00:47:49;;;;;;;3.88;3.42;;;21.20;99.90;;;;;;5049815;28;20213;-71
2023/06/18 00:50:17;;;;;;;5.60;3.70;;;21.20;99.90;;;;;;5050045;28;20215;-72
2023/06/18 00:52:47;;;;;;;4.25;3.85;;;21.10;99.90;;;;;;5048614;28;20710;-72
2023/06/18 00:55:16;;;;;;;3.67;3.22;;;21.00;99.90;;;;;;5053547;28;20619;-68
2023/06/18 00:57:45;;;;;;;4.13;3.72;;;21.00;99.90;;;;;;5053348;28;20295;-68
2023/06/18 01:00:13;;;;;;;8.43;4.60;;;21.10;99.90;;;;;;5040064;28;20243;-67
2023/06/18 01:02:45;;;;;;;5.47;3.75;;;21.10;99.90;;;;;;5053894;28;20213;-67
2023/06/18 01:05:14;;;;;;;4.13;3.72;;;21.10;99.90;;;;;;5053974;28;20226;-67
2023/06/18 01:07:42;;;;;;;3.80;3.45;;;21.10;99.90;;;;;;5052339;28;20209;-67
2023/06/18 01:10:13;;;;;;;3.60;3.30;;;21.00;99.90;;;;;;5052930;28;20258;-67
2023/06/18 01:12:42;;;;;;;6.22;3.67;;;21.10;99.90;;;;;;5053685;28;20293;-71
2023/06/18 01:15:10;;;;;;;3.72;3.42;;;21.10;99.90;;;;;;5053850;28;20211;-73
2023/06/18 01:17:39;;;;;;;5.00;3.70;;;21.20;99.90;;;;;;5049062;28;20210;-71
2023/06/18 01:20:10;;;;;;;4.15;3.80;;;21.20;99.90;;;;;;5053815;28;20213;-70
2023/06/18 01:22:42;;;;;;;4.65;3.90;;;21.00;99.90;;;;;;5053542;28;20229;-71
2023/06/18 01:25:09;;;;;;;3.65;3.25;;;20.90;99.90;;;;;;5052183;28;20222;-71
2023/06/18 01:27:40;;;;;;;5.93;4.32;;;21.10;99.90;;;;;;5052824;28;20245;-71
2023/06/18 01:30:09;;;;;;;4.88;4.45;;;21.10;99.90;;;;;;5052691;28;20210;-71
2023/06/18 01:32:38;;;;;;;3.92;3.53;;;20.90;99.90;;;;;;5047996;28;20637;-70
2023/06/18 01:35:08;;;;;;;4.53;4.18;;;21.00;99.90;;;;;;5045129;28;20207;-74
2023/06/18 01:37:45;;;;;;;4.95;4.03;;;21.00;99.90;;;;;;5053740;28;20211;-72
2023/06/18 01:40:28;;;;;;;5.13;4.25;;;21.00;99.90;;;;;;5053694;28;20203;-71
2023/06/18 01:43:12;;;;;;;4.38;3.97;;;20.90;99.90;;;;;;5050943;28;20245;-68
2023/06/18 01:45:44;;;;;;;4.13;3.38;;;20.80;99.90;;;;;;5052715;28;20238;-75
2023/06/18 01:48:12;;;;;;;5.22;3.70;;;20.80;99.90;;;;;;5053432;28;20245;-73
2023/06/18 01:50:44;;;;;;;5.82;3.92;;;20.80;99.90;;;;;;5053142;28;20686;-69
2023/06/18 01:53:14;;;;;;;3.47;3.17;;;21.00;99.90;;;;;;5052760;28;20211;-70
2023/06/18 01:55:44;;;;;;;5.55;3.92;;;20.80;99.90;;;;;;5051651;28;20198;-67
2023/06/18 01:58:11;;;;;;;4.50;3.38;;;20.80;99.90;;;;;;5051849;28;20207;-69
2023/06/18 02:00:38;;;;;;;3.47;3.15;;;20.80;99.90;;;;;;5051798;28;20203;-70
2023/06/18 02:03:05;;;;;;;3.33;3.03;;;20.80;99.90;;;;;;5053128;28;20724;-68
2023/06/18 02:05:32;;;;;;;3.00;2.75;;;20.80;99.90;;;;;;5052570;28;20249;-69
2023/06/18 02:08:00;;;;;;;4.15;2.95;;;20.70;99.90;;;;;;5052403;28;20238;-74
2023/06/18 02:10:27;;;;;;;4.03;3.67;;;20.70;99.90;;;;;;5052863;28;20242;-71
2023/06/18 02:12:54;;;;;;;3.70;3.40;;;20.60;99.90;;;;;;5051949;28;20272;-73
2023/06/18 02:15:22;;;;;;;3.28;3.05;;;20.60;99.90;;;;;;5052415;28;20211;-72
2023/06/18 02:17:50;;;;;;;5.28;3.03;;;20.70;99.90;;;;;;5050763;28;20253;-73
2023/06/18 02:20:17;;;;;;;4.43;4.03;;;20.60;99.90;;;;;;5051605;28;20207;-69
2023/06/18 02:22:44;;;;;;;3.97;3.58;;;20.60;99.90;;;;;;5052243;28;20260;-70
2023/06/18 02:25:13;;;;;;;3.47;3.17;;;20.60;99.90;;;;;;5052099;28;20258;-70
2023/06/18 02:27:40;;;;;;;3.58;3.20;;;20.50;99.90;;;;;;5052266;28;20686;-70
2023/06/18 02:30:08;;;;;;;3.70;3.40;;;20.50;99.90;;;;;;5052333;28;20245;-72
2023/06/18 02:32:38;;;;;;;3.55;3.25;;;20.40;99.90;;;;;;5047968;28;20285;-71
2023/06/18 02:35:05;;;;;;;4.00;3.28;;;20.40;99.90;;;;;;5049853;28;20206;-72
2023/06/18 02:37:32;;;;;;;3.75;3.38;;;20.60;99.90;;;;;;5050350;28;20202;-71
2023/06/18 02:39:59;;;;;;;4.43;4.03;;;20.60;99.90;;;;;;5047024;28;20214;-71
2023/06/18 02:42:28;;;;;;;4.07;3.65;;;20.50;99.90;;;;;;5045887;28;20238;-71
2023/06/18 02:44:55;;;;;;;4.28;3.33;;;20.50;99.90;;;;;;5050721;28;20238;-71
2023/06/18 02:47:22;;;;;;;3.70;3.40;;;20.60;99.90;;;;;;5046694;28;20253;-72
2023/06/18 02:49:48;;;;;;;5.45;4.78;;;20.50;99.90;;;;;;5051710;28;20214;-73
2023/06/18 02:52:16;;;;;;;4.15;3.75;;;20.50;99.90;;;;;;5051930;28;20242;-72
2023/06/18 02:54:43;;;;;;;5.28;3.80;;;20.40;99.90;;;;;;5048806;28;20268;-73
2023/06/18 02:57:10;;;;;;;4.43;4.03;;;20.40;99.90;;;;;;5051970;28;20207;-73
2023/06/18 02:59:38;;;;;;;7.53;4.65;;;20.40;99.90;;;;;;5051061;28;20245;-68
2023/06/18 03:02:06;;;;;;;5.20;3.97;;;20.40;99.90;;;;;;5051786;28;20694;-71
2023/06/18 03:04:33;;;;;;;4.75;4.30;;;20.30;99.90;;;;;;5048356;28;20815;-70
2023/06/18 03:07:00;;;;;;;4.93;4.32;;;20.40;99.90;;;;;;5047935;28;20282;-71
2023/06/18 03:09:29;;;;;;;4.35;3.95;;;20.40;99.90;;;;;;5050068;28;20234;-73
2023/06/18 03:11:56;;;;;;;6.82;4.60;;;20.40;99.90;;;;;;5051354;28;20285;-71
2023/06/18 03:14:23;;;;;;;9.07;4.25;;;20.40;99.90;;;;;;5051494;28;20292;-73
2023/06/18 03:16:51;;;;;;;4.72;4.32;;;20.50;99.90;;;;;;5053990;28;20327;-73
2023/06/18 03:19:18;;;;;;;5.80;4.15;;;20.50;99.90;;;;;;5050116;28;20296;-69
2023/06/18 03:21:45;;;;;;;6.05;3.90;;;20.30;99.90;;;;;;5050065;28;20242;-69
2023/06/18 03:24:14;;;;;;;6.05;4.50;;;20.20;99.90;;;;;;5051387;28;20247;-69
2023/06/18 03:26:43;;;;;;;4.63;3.95;;;20.20;99.90;;;;;;5051017;28;20236;-70
2023/06/18 03:29:10;;;;;;;4.68;4.22;;;20.10;99.90;;;;;;5051215;28;20207;-70
2023/06/18 03:31:39;;;;;;;3.88;3.47;;;20.20;99.90;;;;;;5049349;28;20245;-69
2023/06/18 03:34:08;;;;;;;4.75;3.90;;;20.20;99.90;;;;;;5040036;28;20214;-69
2023/06/18 03:36:39;;;;;;;4.30;3.83;;;20.30;99.90;;;;;;5051687;28;20210;-68
2023/06/18 03:39:06;;;;;;;4.28;3.88;;;20.30;99.90;;;;;;5049866;28;20206;-71
2023/06/18 03:41:32;;;;;;;5.20;4.70;;;20.20;99.90;;;;;;5050415;28;20280;-69
2023/06/18 03:43:59;;;;;;;5.03;4.53;;;20.10;99.90;;;;;;5048357;28;20269;-69
2023/06/18 03:46:26;;;;;;;5.53;4.47;;;20.10;99.90;;;;;;5049785;28;20262;-68
2023/06/18 03:48:53;;;;;;;4.70;4.30;;;20.10;99.90;;;;;;5050369;28;20678;-68
2023/06/18 03:51:22;;;;;;;4.32;3.92;;;20.10;99.90;;;;;;5050619;28;20245;-68
2023/06/18 03:53:50;;;;;;;6.43;4.05;;;20.10;99.90;;;;;;5050422;28;20253;-74
2023/06/18 03:56:17;;;;;;;7.75;3.90;;;20.10;99.90;;;;;;5050819;28;20203;-75
2023/06/18 03:58:44;;;;;;;4.93;3.80;;;20.00;99.90;;;;;;5050289;28;20207;-74
2023/06/18 04:01:11;;;;;;;4.07;3.72;;;20.10;99.90;;;;;;5047879;28;20234;-75
2023/06/18 04:03:39;;;;;;;4.43;3.70;;;20.20;99.90;;;;;;5048692;28;20430;-75
2023/06/18 04:06:07;;;;;;;4.63;3.72;;;20.20;99.90;;;;;;5050051;28;20231;-74
2023/06/18 04:08:36;;;;;;;5.32;3.75;;;20.20;99.90;;;;;;5049781;28;20203;-72
2023/06/18 04:11:03;;;;;;;4.97;3.80;;;20.30;99.90;;;;;;5049010;28;20210;-68
2023/06/18 04:13:30;;;;;;;4.95;4.00;;;20.10;99.90;;;;;;5050880;28;20203;-74
2023/06/18 04:15:59;;;;;;;3.83;3.45;;;20.10;99.90;;;;;;5050235;28;20207;-75
2023/06/18 04:18:26;;;;;;;4.82;4.07;;;20.10;99.90;;;;;;5050438;28;20231;-70
2023/06/18 04:20:53;;;;;;;4.10;3.67;;;20.10;99.90;;;;;;5049565;28;20572;-72
2023/06/18 04:23:20;;;;;;;5.18;4.45;;;20.10;99.90;;;;;;5048438;28;20234;-74
2023/06/18 04:25:48;;;;;;;5.28;4.20;;;20.20;99.90;;;;;;5048271;28;20273;-75
2023/06/18 04:28:15;;;;;;;4.25;3.47;;;20.20;99.90;;;;;;5050151;28;20207;-72
2023/06/18 04:30:42;;;;;;;5.28;3.63;;;20.30;99.90;;;;;;5049637;28;20730;-71
2023/06/18 04:33:09;;;;;;;4.35;3.60;;;20.40;99.90;;;;;;5041187;28;20250;-69
2023/06/18 04:35:36;;;;;;;5.13;4.53;;;20.50;99.90;;;;;;5046138;28;20242;-70
2023/06/18 04:38:03;;;;;;;4.75;4.25;;;20.50;99.90;;;;;;5050321;28;20614;-70
2023/06/18 04:40:30;;;;;;;5.18;3.97;;;20.50;99.90;;;;;;5045157;28;20210;-73
2023/06/18 04:42:58;;;;;;;4.70;4.28;;;20.50;99.90;;;;;;5047256;28;20666;-67
2023/06/18 04:45:25;;;;;;;5.80;4.20;;;20.30;99.90;;;;;;5048966;28;20296;-67
2023/06/18 04:47:52;;;;;;;6.95;4.78;;;20.10;99.90;;;;;;5049590;28;20234;-67
2023/06/18 04:50:19;;;;;;;6.50;4.00;;;20.20;99.90;;;;;;5049984;28;20206;-67
2023/06/18 04:52:46;;;;;;;5.13;4.28;;;20.30;99.90;;;;;;5049409;28;20260;-68
2023/06/18 04:55:13;;;;;;;5.07;4.57;;;20.20;99.90;;;;;;5050050;28;20238;-68
2023/06/18 04:57:40;;;;;;;5.13;4.35;;;20.30;99.90;;;;;;5046896;28;20207;-68
2023/06/18 05:00:10;;;;;;;4.97;4.47;;;20.40;99.90;;;;;;5047898;28;20203;-68
2023/06/18 05:02:37;;;;;;;5.43;4.43;;;20.50;99.90;;;;;;5050045;28;20211;-68
2023/06/18 05:05:04;;;;;;;5.70;5.13;;;20.40;99.90;;;;;;5047482;28;20230;-71
2023/06/18 05:07:31;;;;;;;5.53;4.63;;;20.30;99.90;;;;;;5050059;28;20288;-67
2023/06/18 05:09:58;;;;;;;6.47;5.15;;;20.40;99.90;;;;;;5049745;28;20658;-67
2023/06/18 05:12:25;;;;;;;6.43;5.28;;;20.40;99.90;;;;;;5050228;28;20234;-67
2023/06/18 05:14:52;;;;;;;5.38;4.72;;;20.30;99.90;;;;;;5047629;28;20276;-67
2023/06/18 05:17:20;;;;;;;8.05;5.30;;;20.40;99.90;;;;;;5050084;28;20238;-71
2023/06/18 05:19:47;;;;;;;5.55;4.70;;;20.50;99.90;;;;;;5049577;28;20242;-68
2023/06/18 05:22:14;;;;;;;5.30;4.60;;;20.50;99.90;;;;;;5049864;28;20230;-68
2023/06/18 05:24:41;;;;;;;6.03;5.43;;;20.50;99.90;;;;;;5049854;28;20213;-67
2023/06/18 05:27:08;;;;;;;6.53;5.35;;;20.60;99.90;;;;;;5046301;28;20262;-67
2023/06/18 05:29:35;;;;;;;7.55;5.47;;;20.60;99.90;;;;;;5049078;28;20276;-68
2023/06/18 05:32:02;;;;;;;5.90;5.40;;;20.60;99.90;;;;;;5050107;28;20230;-68
2023/06/18 05:34:30;;;;;;;6.63;6.03;;;20.70;99.90;;;;;;5039072;28;20238;-69
2023/06/18 05:36:57;;;;;;;6.03;5.53;;;20.80;99.90;;;;;;5049852;28;20250;-69
2023/06/18 05:39:24;;;;;;;5.70;5.20;;;20.90;99.90;;;;;;5051203;28;20239;-68
2023/06/18 05:41:51;;;;;;;7.40;5.60;;;21.10;99.90;;;;;;5051225;28;20230;-68
2023/06/18 05:44:18;;;;;;;6.95;6.25;;;21.20;99.90;;;;;;5053448;28;20214;-75
2023/06/18 05:46:45;;;;;;;5.85;4.55;;;21.20;99.90;;;;;;5053052;28;20262;-69
2023/06/18 05:49:12;;;;;;;6.40;5.38;;;21.40;99.90;;;;;;5053136;28;20739;-68
2023/06/18 05:51:40;;;;;;;6.45;5.60;;;21.50;99.90;;;;;;5052872;28;20215;-69
2023/06/18 05:54:07;;;;;;;6.47;4.97;;;21.60;99.90;;;;;;5052725;28;20235;-69
2023/06/18 05:56:34;;;;;;;6.28;5.68;;;21.50;99.90;;;;;;5053144;28;20290;-68
2023/06/18 05:59:01;;;;;;;5.82;4.72;;;21.60;99.90;;;;;;5050946;28;20252;-68
2023/06/18 06:01:28;;;;;;;6.47;5.88;;;21.70;99.90;;;;;;5049810;28;20257;-67
2023/06/18 06:03:55;;;;;;;6.20;4.68;;;21.80;99.90;;;;;;5050483;28;20380;-68
2023/06/18 06:06:22;;;;;;;5.18;4.78;;;21.90;99.90;;;;;;5050168;28;20235;-68
2023/06/18 06:08:50;;;;;;;5.70;3.80;;;21.90;99.90;;;;;;5052917;28;20253;-68
2023/06/18 06:11:17;;;;;;;5.75;5.07;;;21.90;99.90;;;;;;5052684;28;20242;-69
2023/06/18 06:13:43;;;;;;;5.22;4.30;;;21.90;99.90;;;;;;5050673;28;20682;-67
2023/06/18 06:16:10;;;;;;;8.13;5.28;;;21.90;99.90;;;;;;5048669;28;20207;-68
2023/06/18 06:18:37;;;;;;;6.32;5.18;;;21.90;99.90;;;;;;5052660;28;20235;-68
2023/06/18 06:21:04;;;;;;;5.60;5.10;;;21.90;99.90;;;;;;5053144;28;20695;-67
2023/06/18 06:23:31;;;;;;;4.88;4.32;;;21.90;99.90;;;;;;5051929;28;20230;-67
2023/06/18 06:26:00;;;;;;;5.53;4.95;;;22.00;99.90;;;;;;5046041;28;20269;-67
2023/06/18 06:28:27;;;;;;;7.28;4.60;;;22.00;99.90;;;;;;5050705;28;20349;-67
2023/06/18 06:30:54;;;;;;;7.30;4.55;;;22.10;99.90;;;;;;5051506;28;20234;-67
2023/06/18 06:33:21;;;;;;;6.68;5.40;;;22.20;99.90;;;;;;5040743;28;20300;-67
2023/06/18 06:35:48;;;;;;;5.90;4.60;;;22.20;99.90;;;;;;5048212;28;20689;-67
2023/06/18 06:38:15;;;;;;;5.70;4.40;;;22.20;99.90;;;;;;5049997;28;20199;-70
2023/06/18 06:40:43;;;;;;;4.80;4.25;;;22.20;99.90;;;;;;5049936;28;20238;-67
2023/06/18 06:43:11;;;;;;;5.03;4.53;;;22.30;99.90;;;;;;5048653;28;20202;-67
2023/06/18 06:45:38;;;;;;;5.03;4.50;;;22.40;99.90;;;;;;5043582;28;20262;-68
2023/06/18 06:48:05;;;;;;;4.72;4.32;;;22.30;99.90;;;;;;5050153;28;20254;-67
2023/06/18 06:50:32;;;;;;;8.32;4.63;;;22.40;99.90;;;;;;5050181;28;20250;-68
2023/06/18 06:52:59;;;;;;;6.00;5.18;;;23.10;99.90;;;;;;5048574;28;20676;-67
2023/06/18 06:55:26;;;;;;;5.78;4.03;;;24.60;99.90;;;;;;5044282;28;20241;-68
2023/06/18 06:57:53;;;;;;;5.90;4.40;;;23.90;99.90;;;;;;5046606;28;20297;-68
2023/06/18 07:00:21;;;;;;;5.38;4.88;;;23.50;99.90;;;;;;5050198;28;20261;-67
2023/06/18 07:02:48;;;;;;;8.00;4.75;;;23.40;99.90;;;;;;5046898;28;20245;-72
2023/06/18 07:05:15;;;;;;;8.45;4.53;;;23.30;99.90;;;;;;5050325;28;20246;-66
2023/06/18 07:07:42;;;;;;;4.65;4.25;;;23.20;99.90;;;;;;5048484;28;20238;-70
2023/06/18 07:10:10;;;;;;;3.95;3.63;;;23.00;99.90;;;;;;5046577;28;20233;-68
2023/06/18 07:12:37;;;;;;;4.75;4.32;;;23.10;99.90;;;;;;5050699;28;20218;-68
2023/06/18 07:15:05;;;;;;;5.35;4.85;;;23.10;99.90;;;;;;5045749;28;20298;-71
2023/06/18 07:17:33;;;;;;;5.43;3.78;;;23.10;99.90;;;;;;5051319;28;20210;-68
2023/06/18 07:20:00;;;;;;;5.20;4.70;;;23.30;99.90;;;;;;5051078;28;20753;-67
2023/06/18 07:22:26;;;;;;;4.78;4.30;;;23.30;99.90;;;;;;5049219;28;20234;-68
2023/06/18 07:24:56;;;;;;;4.93;4.43;;;23.40;99.90;;;;;;5049925;28;20296;-70
2023/06/18 07:27:24;;;;;;;4.57;4.13;;;23.50;99.90;;;;;;5050027;28;20234;-69
2023/06/18 07:29:52;;;;;;;7.55;4.47;;;23.50;99.90;;;;;;5043918;28;20219;-69
2023/06/18 07:32:18;;;;;;;4.85;4.38;;;23.60;99.90;;;;;;5045543;28;20213;-68
2023/06/18 07:34:48;;;;;;;6.95;5.50;;;23.80;99.90;;;;;;5042870;28;20226;-71
2023/06/18 07:37:16;;;;;;;6.60;6.00;;;23.70;99.90;;;;;;5048913;28;20298;-68
2023/06/18 07:39:43;;;;;;;7.05;6.35;;;23.60;99.90;;;;;;5047789;28;20203;-69
2023/06/18 07:42:13;;;;;;;9.10;6.30;;;23.70;99.90;;;;;;5047874;28;20218;-70
2023/06/18 07:44:41;;;;;;;7.07;6.00;;;24.00;99.90;;;;;;5036891;28;20297;-70
2023/06/18 07:47:08;;;;;;;6.45;5.90;;;24.40;99.90;;;;;;5044815;28;20258;-69
2023/06/18 07:49:35;;;;;;;8.40;6.70;;;24.40;99.90;;;;;;5044782;28;20214;-70
2023/06/18 07:52:03;;;;;;;7.32;6.72;;;24.10;99.90;;;;;;5047303;28;20247;-71
2023/06/18 07:54:34;;;;;;;8.85;7.28;;;24.60;99.90;;;;;;5044622;28;20251;-70
2023/06/18 07:57:05;;;;;;;7.95;7.18;;;24.50;99.90;;;;;;5042020;28;20215;-70
2023/06/18 07:59:32;;;;;;;7.28;6.60;;;24.90;99.90;;;;;;5048644;28;20206;-69
2023/06/18 08:01:59;;;;;;;8.10;7.30;;;24.90;99.90;;;;;;5034020;28;20644;-70
2023/06/18 08:04:26;;;;;;;7.85;7.05;;;24.60;99.90;;;;;;5040662;28;20242;-72
2023/06/18 08:06:53;;;;;;;8.40;7.28;;;24.60;99.90;;;;;;5040478;28;20281;-70
2023/06/18 08:09:22;;;;;;;8.32;6.55;;;24.70;99.90;;;;;;5041462;28;20212;-68
2023/06/18 08:11:49;;;;;;;7.88;7.13;;;24.80;99.90;;;;;;5039053;28;20210;-69
2023/06/18 08:14:16;;;;;;;7.57;6.85;;;24.90;99.90;;;;;;5040636;28;20206;-71
2023/06/18 08:16:43;;;;;;;7.68;6.85;;;24.70;99.90;;;;;;5041118;28;20235;-71
2023/06/18 08:19:10;;;;;;;9.52;6.57;;;24.90;99.90;;;;;;5038489;28;20235;-70
2023/06/18 08:21:37;;;;;;;12.70;6.93;;;24.50;99.90;;;;;;5043547;28;20214;-70
2023/06/18 08:24:04;;;;;;;7.82;7.13;;;24.70;99.90;;;;;;5038956;28;20685;-71
2023/06/18 08:26:32;;;;;;;7.25;6.72;;;24.80;99.90;;;;;;5046766;28;20237;-69
2023/06/18 08:28:59;;;;;;;7.35;6.75;;;24.90;99.90;;;;;;5043728;28;20203;-70
2023/06/18 08:31:26;;;;;;;7.10;6.50;;;25.10;99.90;;;;;;5040160;28;20591;-70
2023/06/18 08:33:53;;;;;;;7.65;7.03;;;25.00;99.90;;;;;;5042725;28;20289;-71
2023/06/18 08:36:21;;;;;;;7.45;6.72;;;24.90;99.90;;;;;;5049090;28;20268;-72
2023/06/18 08:38:48;;;;;;;7.90;6.60;;;25.00;99.90;;;;;;5047284;28;20284;-74
2023/06/18 08:41:15;;;;;;;8.45;7.28;;;25.00;99.90;;;;;;5048792;28;20203;-73
2023/06/18 08:43:45;;;;;;;6.40;5.93;;;25.20;99.90;;;;;;5047267;28;20218;-70
2023/06/18 08:46:13;;;;;;;7.57;6.90;;;25.10;99.90;;;;;;5048394;28;20288;-72
2023/06/18 08:48:45;;;;;;;7.72;7.00;;;25.10;99.90;;;;;;5049154;28;20261;-74
2023/06/18 08:51:12;;;;;;;8.35;7.75;;;25.00;99.90;;;;;;5047226;28;20214;-70
2023/06/18 08:53:45;;;;;;;7.55;6.95;;;25.30;99.90;;;;;;5048922;28;20248;-73
2023/06/18 08:56:15;;;;;;;7.30;6.60;;;25.20;99.90;;;;;;5046938;28;20698;-69
2023/06/18 08:58:49;;;;;;;7.65;6.68;;;25.10;99.90;;;;;;5050058;28;20235;-69
2023/06/18 09:01:16;;;;;;;7.03;6.40;;;25.00;99.90;;;;;;5049663;28;20292;-75
2023/06/18 09:03:44;;;;;;;7.70;7.07;;;25.00;99.90;;;;;;5049353;28;20709;-72
2023/06/18 09:06:12;;;;;;;8.15;7.38;;;25.30;99.90;;;;;;5050255;28;20678;-72
2023/06/18 09:08:39;;;;;;;7.00;6.40;;;25.50;99.90;;;;;;5050093;28;20233;-72
2023/06/18 09:11:06;;;;;;;7.78;6.50;;;26.00;99.90;;;;;;5049815;28;20238;-73
2023/06/18 09:13:33;;;;;;;7.30;6.60;;;26.50;99.90;;;;;;5049615;28;20239;-70
2023/06/18 09:16:02;;;;;;;8.18;7.47;;;26.70;99.90;;;;;;5053810;28;20231;-73
2023/06/18 09:18:29;;;;;;;10.52;9.50;;;26.60;99.90;;;;;;5053191;28;20206;-73
2023/06/18 09:20:56;;;;;;;22.20;19.85;;;26.70;99.90;;;;;;5053801;28;20292;-72
2023/06/18 09:23:23;;;;;;;9.18;8.35;;;27.30;99.90;;;;;;5054160;28;20207;-69
2023/06/18 09:25:51;;;;;;;9.77;8.88;;;26.80;99.90;;;;;;5048347;28;20242;-73
2023/06/18 09:28:19;;;;;;;6.88;6.35;;;26.40;99.90;;;;;;5053507;28;20231;-73
2023/06/18 09:30:50;;;;;;;7.18;6.57;;;26.50;99.90;;;;;;5053576;28;20235;-74
2023/06/18 09:33:27;;;;;;;8.25;7.45;;;27.10;99.90;;;;;;5046129;28;20674;-75
2023/06/18 09:36:03;;;;;;;7.90;7.25;;;27.40;99.90;;;;;;5053606;28;20230;-74
2023/06/18 09:38:34;;;;;;;6.97;6.38;;;28.20;99.90;;;;;;5053102;28;20237;-74
2023/06/18 09:41:02;;;;;;;7.50;6.72;;;29.80;99.90;;;;;;5053229;28;20625;-70
2023/06/18 09:43:34;;;;;;;7.85;7.15;;;30.30;99.90;;;;;;5053462;28;20238;-74
2023/06/18 09:46:04;;;;;;;9.88;9.02;;;30.70;99.90;;;;;;5053424;28;20209;-74
2023/06/18 09:48:35;;;;;;;7.30;6.50;;;32.10;99.90;;;;;;5052935;28;20266;-72
2023/06/18 09:51:02;;;;;;;7.65;6.95;;;31.10;99.90;;;;;;5053009;28;20249;-75
2023/06/18 09:53:29;;;;;;;9.40;8.60;;;29.40;99.90;;;;;;5053112;28;20245;-70
2023/06/18 09:56:08;;;;;;;7.00;6.38;;;29.10;99.90;;;;;;5053092;28;20207;-73
2023/06/18 09:58:41;;;;;;;6.40;5.90;;;29.70;99.90;;;;;;5052826;28;20587;-74
2023/06/18 10:01:08;;;;;;;7.00;6.40;;;30.10;99.90;;;;;;5052809;28;20217;-73
2023/06/18 10:03:37;;;;;;;7.43;6.82;;;30.50;99.90;;;;;;5052691;28;20248;-74
2023/06/18 10:06:12;;;;;;;7.63;6.93;;;31.40;99.90;;;;;;5052852;28;20238;-72
2023/06/18 10:08:43;;;;;;;6.00;5.40;;;33.30;99.90;;;;;;5052322;28;20781;-76
2023/06/18 10:11:11;;;;;;;7.30;6.75;;;34.30;99.90;;;;;;5053226;28;20228;-75
2023/06/18 10:13:42;;;;;;;6.55;6.00;;;34.10;99.90;;;;;;5052542;28;20229;-74
2023/06/18 10:16:10;;;;;;;7.97;6.88;;;33.80;99.90;;;;;;5052499;28;20210;-70
2023/06/18 10:18:39;;;;;;;7.10;6.50;;;33.80;99.90;;;;;;5052044;28;20202;-75
2023/06/18 10:21:08;;;;;;;7.57;6.35;;;33.50;99.90;;;;;;5052996;28;20241;-71
2023/06/18 10:23:35;;;;;;;6.32;5.72;;;32.50;99.90;;;;;;5051857;28;20246;-74
2023/06/18 10:26:04;;;;;;;7.07;6.60;;;31.70;99.90;;;;;;5052138;28;20246;-71
2023/06/18 10:28:32;;;;;;;7.03;6.43;;;31.30;99.90;;;;;;5052991;28;20222;-76
2023/06/18 10:31:01;;;;;;;6.50;5.90;;;29.60;99.90;;;;;;5054656;28;20210;-73
2023/06/18 10:33:31;;;;;;;8.02;7.28;;;28.60;99.90;;;;;;5040621;28;20214;-74
2023/06/18 10:35:59;;;;;;;8.25;7.22;;;28.30;99.90;;;;;;5042086;28;20202;-75
2023/06/18 10:38:28;;;;;;;7.20;6.72;;;28.00;99.90;;;;;;5041389;28;20242;-70
2023/06/18 10:41:10;;;;;;;6.90;6.38;;;27.70;99.90;;;;;;5049300;28;20260;-72
2023/06/18 10:43:40;;;;;;;6.90;6.15;;;27.60;99.90;;;;;;5046947;28;20290;-71
2023/06/18 10:46:11;;;;;;;8.15;6.68;;;27.50;99.90;;;;;;5047887;28;20292;-74
2023/06/18 10:48:38;;;;;;;7.38;6.68;;;27.60;99.90;;;;;;5048116;28;20230;-76
2023/06/18 10:51:17;;;;;;;8.68;7.82;;;27.70;99.90;;;;;;5051430;28;20251;-75
2023/06/18 10:53:45;;;;;;;7.70;7.10;;;27.60;99.90;;;;;;5051494;28;20238;-75
2023/06/18 10:56:15;;;;;;;7.75;7.10;;;27.70;99.90;;;;;;5052294;28;20296;-71
2023/06/18 10:58:43;;;;;;;7.35;6.75;;;27.70;99.90;;;;;;5041389;28;20209;-76
2023/06/18 11:01:25;;;;;;;7.53;6.82;;;27.60;99.90;;;;;;5051650;28;20207;-74
2023/06/18 11:04:02;;;;;;;9.13;8.10;;;27.50;99.90;;;;;;5051535;28;20207;-75
2023/06/18 11:06:31;;;;;;;7.57;6.97;;;27.50;99.90;;;;;;5051437;28;20209;-76
2023/06/18 11:08:58;;;;;;;8.90;7.95;;;27.60;99.90;;;;;;5050053;28;20317;-73
2023/06/18 11:11:26;;;;;;;8.90;7.95;;;27.90;99.90;;;;;;5048661;28;20241;-73
2023/06/18 11:13:55;;;;;;;8.45;7.78;;;28.10;99.90;;;;;;5048877;28;20215;-75
2023/06/18 11:16:22;;;;;;;10.73;7.75;;;28.40;99.90;;;;;;5051248;28;20675;-75
2023/06/18 11:18:53;;;;;;;8.88;7.40;;;28.20;99.90;;;;;;5051189;28;20241;-75
2023/06/18 11:21:21;;;;;;;11.02;10.13;;;28.10;99.90;;;;;;5051498;28;20202;-74
2023/06/18 11:23:51;;;;;;;7.93;7.22;;;28.30;99.90;;;;;;5050151;28;20606;-74
2023/06/18 11:26:19;;;;;;;7.85;6.88;;;28.20;99.90;;;;;;5051338;28;20242;-70
2023/06/18 11:28:47;;;;;;;8.95;7.00;;;28.00;99.90;;;;;;5046865;28;20345;-74
2023/06/18 11:31:14;;;;;;;8.82;6.70;;;27.80;99.90;;;;;;5041967;28;20207;-72
2023/06/18 11:33:47;;;;;;;8.02;7.40;;;27.90;99.90;;;;;;5047979;28;20689;-72
2023/06/18 11:36:16;;;;;;;8.18;7.47;;;28.00;99.90;;;;;;5050879;28;20302;-74
2023/06/18 11:38:43;;;;;;;7.38;6.68;;;28.00;99.90;;;;;;5050996;28;20210;-74
2023/06/18 11:41:12;;;;;;;12.27;7.40;;;28.20;99.90;;;;;;5047364;28;20230;-73
2023/06/18 11:43:46;;;;;;;9.65;8.77;;;28.40;99.90;;;;;;5043468;28;20678;-74
2023/06/18 11:46:28;;;;;;;10.65;9.75;;;28.60;99.90;;;;;;5049166;28;20298;-76
2023/06/18 11:48:55;;;;;;;8.90;8.20;;;28.40;99.90;;;;;;5042918;28;20322;-75
2023/06/18 11:51:24;;;;;;;8.18;7.38;;;28.70;99.90;;;;;;5041584;28;20302;-70
2023/06/18 11:53:52;;;;;;;7.90;7.07;;;28.40;99.90;;;;;;5044222;28;20561;-75
2023/06/18 11:56:24;;;;;;;7.78;7.18;;;28.30;99.90;;;;;;5050070;28;20235;-71
2023/06/18 11:58:52;;;;;;;8.30;7.57;;;28.30;99.90;;;;;;5044919;28;20206;-73
2023/06/18 12:01:19;;;;;;;7.82;7.03;;;28.30;99.90;;;;;;5046538;28;20200;-69
2023/06/18 12:03:46;;;;;;;7.97;7.28;;;28.10;99.90;;;;;;5047944;28;20242;-70
2023/06/18 12:06:14;;;;;;;7.40;6.68;;;27.90;99.90;;;;;;5049379;28;20654;-74
2023/06/18 12:08:45;;;;;;;8.02;7.22;;;28.10;99.90;;;;;;5048223;28;20274;-74
2023/06/18 12:11:25;;;;;;;8.63;7.93;;;27.80;99.90;;;;;;5044332;28;20209;-74
2023/06/18 12:13:57;;;;;;;7.60;7.00;;;27.80;99.90;;;;;;5045076;28;20577;-69
2023/06/18 12:16:29;;;;;;;9.00;8.15;;;27.70;99.90;;;;;;5040484;28;20698;-69
2023/06/18 12:19:00;;;;;;;10.32;7.78;;;27.50;99.90;;;;;;5047874;28;20207;-69
2023/06/18 12:21:27;;;;;;;8.60;6.88;;;27.50;99.90;;;;;;5042053;28;20638;-69
2023/06/18 12:23:55;;;;;;;7.95;7.15;;;27.50;99.90;;;;;;5043700;28;20634;-69
2023/06/18 12:26:22;;;;;;;7.68;7.07;;;27.50;99.90;;;;;;5044457;28;20203;-71
2023/06/18 12:28:49;;;;;;;7.57;7.00;;;27.50;99.90;;;;;;5039609;28;20258;-71
2023/06/18 12:31:17;;;;;;;7.85;7.00;;;27.60;99.90;;;;;;5046705;28;20203;-72
2023/06/18 12:33:45;;;;;;;7.50;6.80;;;27.70;99.90;;;;;;5040400;28;20234;-71
2023/06/18 12:36:12;;;;;;;7.30;6.75;;;27.90;99.90;;;;;;5044663;28;20215;-70
2023/06/18 12:38:43;;;;;;;8.93;7.93;;;28.00;99.90;;;;;;5038639;28;20226;-71
2023/06/18 12:41:10;;;;;;;7.40;6.70;;;28.40;99.90;;;;;;5040630;28;20979;-71
2023/06/18 12:43:41;;;;;;;8.20;7.50;;;28.60;99.90;;;;;;5041709;28;20202;-71
2023/06/18 12:46:09;;;;;;;7.68;6.72;;;28.60;99.90;;;;;;5042538;28;20617;-71
2023/06/18 12:48:41;;;;;;;8.25;7.45;;;28.60;99.90;;;;;;5051079;28;20226;-74
2023/06/18 12:51:08;;;;;;;7.47;6.90;;;28.20;99.90;;;;;;5054416;28;20211;-73
2023/06/18 12:53:35;;;;;;;7.45;6.85;;;28.40;99.90;;;;;;5052431;28;20237;-77